CheckWX is a tool to help pilots better visualize weather data.  It is not intended as a substitute for an official pre-flight weather briefing.

20:14:03 UTC

KPTN METAR
Harry P Williams Memorial Airport
Patterson, Louisiana, USA
Current

18 mins ago

KPTN 231956Z AUTO 15012G15KT 10SM CLR 26/17 A3008 RMK AO2 SLP186 T02560172
Observed
Apr-23 @ 19:56 UTC
Wind
  • 150° at 12 KTS
  • Gusting to 15 KTS
Visibility
10 SM
Flight Rules
VFR
Cloud Levels
  • Clear skies
Temperature
26°C / 79°F
Dewpoint
17°C / 63°F
Humidity
58%
Altimeter
30.08" Hg
Pressure
1018.62 hPa
Previous

1 hour ago

KPTN 231856Z AUTO 14009KT 10SM FEW037 25/17 A3011 RMK AO2 SLP197 T02500167
Observed
Apr-23 @ 18:56 UTC
Wind
  • 140° at 9 KTS
Visibility
10 SM
Flight Rules
VFR
Cloud Levels
  • Few at 3,700' AGL
Temperature
25°C / 77°F
Dewpoint
17°C / 63°F
Humidity
61%
Altimeter
30.11" Hg
Pressure
1019.62 hPa
Previous

2 hours ago

KPTN 231756Z AUTO 16006KT 10SM CLR 25/16 A3013 RMK AO2 SLP203 T02500156 10256 20172 58005
Observed
Apr-23 @ 17:56 UTC
Wind
  • 160° at 6 KTS
Visibility
10 SM
Flight Rules
VFR
Cloud Levels
  • Clear skies
Temperature
25°C / 77°F
Dewpoint
16°C / 61°F
Humidity
57%
Altimeter
30.13" Hg
Pressure
1020.32 hPa